Aviation Digital Data Service (ADDS)

Output produced by TAFs form (0629 UTC 27 March 2017)
found at http://www.aviationweather.gov/adds/tafs/
 
METAR text: RJBD 270600Z 31016KT 9999 FEW035 13/02 Q1012
Conditions at: RJBD (NANKISHIRAHAMA A, JP) observed 0600 UTC 27 March 2017
Temperature: 13.0°C (55°F)
Dewpoint: 2.0°C (36°F) [RH = 47%]
Pressure (altimeter): 29.88 inches Hg (1012.0 mb)
Winds: from the NW (310 degrees) at 18 MPH (16 knots; 8.3 m/s)
Visibility: 6 or more miles (10+ km)
Ceiling: at least 12,000 feet AGL
Clouds: few clouds at 3500 feet AGL
Weather: no significant weather observed at this time